This is the latest recevied weather packets stored in our database for station/object Ummendorf. If no packets are shown the sender has not sent any weather packets the latest 10 day(s).
| Time | Temp. | Humidity | Pressure | Rain* | Wind** | Luminosity | Snow |
|---|---|---|---|---|---|---|---|
| 1777244532 | 7.22° C | 52% | 1022.6 hPa | 0 mm | - | - | - |
| 1777242729 | 7.78° C | 51% | 1022.6 hPa | 0 mm | - | - | - |
| 1777239130 | 8.89° C | 49% | 1022.6 hPa | 0 mm | - | - | - |
| 1777237329 | 9.44° C | 48% | 1022.6 hPa | 0 mm | - | - | - |
| 1777235530 | 10° C | 46% | 1022.6 hPa | 0 mm | - | - | - |
| 1777233730 | 11.67° C | 44% | 1022.4 hPa | 0 mm | - | - | - |
| 1777231930 | 12.78° C | 40% | 1022.1 hPa | 0 mm | - | - | - |
| 1777230130 | 13.89° C | 37% | 1021.7 hPa | 0 mm | - | - | - |
| 1777228331 | 16.11° C | 32% | 1021.4 hPa | 0 mm | - | - | - |
| 1777226530 | 17.22° C | 27% | 1021.2 hPa | 0 mm | - | - | - |
| 1777224730 | 18.33° C | 26% | 1021 hPa | 0 mm | - | - | - |
| 1777222930 | 18.89° C | 21% | 1021 hPa | 0 mm | - | - | - |
| 1777221130 | 19.44° C | 19% | 1021 hPa | 0 mm | - | - | - |
| 1777219331 | 19.44° C | 20% | 1021.2 hPa | 0 mm | - | - | - |
| 1777217530 | 18.89° C | 22% | 1021.2 hPa | 0 mm | - | - | - |
| 1777215731 | 18.89° C | 21% | 1021.2 hPa | 0 mm | - | - | - |
| 1777213930 | 18.33° C | 21% | 1021.3 hPa | 0 mm | - | - | - |
| 1777212130 | 18.89° C | 22% | 1021.4 hPa | 0 mm | - | - | - |
| 1777210330 | 17.78° C | 21% | 1021.7 hPa | 0 mm | - | - | - |
| 1777208531 | 18.89° C | 18% | 1022 hPa | 0 mm | - | - | - |
| 1777206730 | 18.89° C | 18% | 1022 hPa | 0 mm | - | - | - |
| 1777204931 | 18.89° C | 10% | 1022.2 hPa | 0 mm | - | - | - |
| 1777203131 | 18.33° C | 16% | 1022.4 hPa | 0 mm | - | - | - |
| 1777201330 | 18.89° C | 17% | 1022.6 hPa | 0 mm | - | - | - |
| 1777199532 | 18.33° C | 20% | 1022.8 hPa | 0 mm | - | - | - |
* Rain since midnight (hover to see other rain measurements)
** Current wind speed in m/s (hover to see current wind gust speed)